This is the latest recevied weather packets stored in our database for station/object Riedlingn. If no packets are shown the sender has not sent any weather packets the latest 10 day(s).
| Time | Temp. | Humidity | Pressure | Rain* | Wind** | Luminosity | Snow |
|---|---|---|---|---|---|---|---|
| 1787749330 | 27.22° C | 54% | 1020.3 hPa | 0 mm | - | - | - |
| 1787747530 | 27.78° C | 55% | 1020.4 hPa | 0 mm | - | - | - |
| 1787745730 | 27.22° C | 58% | 1020.6 hPa | 0 mm | - | - | - |
| 1787743931 | 26.11° C | 59% | 1020.7 hPa | 0 mm | - | - | - |
| 1787742134 | 25.56° C | 65% | 1021.2 hPa | 0 mm | - | - | - |
| 1787740330 | 24.44° C | 70% | 1021.5 hPa | 0 mm | - | - | - |
| 1787738530 | 23.33° C | 74% | 1021.8 hPa | 0 mm | - | - | - |
| 1787736730 | 22.22° C | 78% | 1021.9 hPa | 0 mm | - | - | - |
| 1787734930 | 20.56° C | 85% | 1022 hPa | 0 mm | - | - | - |
| 1787733130 | 18.89° C | 90% | 1022 hPa | 0 mm | - | - | - |
| 1787731330 | 18.33° C | 94% | 1022 hPa | 0 mm | - | - | - |
| 1787729531 | 17.22° C | 96% | 1021.9 hPa | 0 mm | - | - | - |
| 1787727730 | 16.11° C | 96% | 1021.8 hPa | 0 mm | - | - | - |
| 1787725929 | 15.56° C | 96% | 1021.8 hPa | 0 mm | - | - | - |
| 1787724130 | 15° C | 96% | 1021.4 hPa | 0 mm | - | - | - |
| 1787722330 | 15° C | 96% | 1021.4 hPa | 0 mm | - | - | - |
| 1787720529 | 14.44° C | 96% | 1021.4 hPa | 0 mm | - | - | - |
| 1787718729 | 14.44° C | 95% | 1021.1 hPa | 0 mm | - | - | - |
| 1787716929 | 14.44° C | 95% | 1021.1 hPa | 0 mm | - | - | - |
| 1787715130 | 15° C | 95% | 1020.8 hPa | 0 mm | - | - | - |
| 1787713330 | 15° C | 95% | 1020.9 hPa | 0 mm | - | - | - |
| 1787711529 | 15° C | 95% | 1020.8 hPa | 0 mm | - | - | - |
| 1787709729 | 15° C | 95% | 1020.7 hPa | 0 mm | - | - | - |
| 1787707930 | 15.56° C | 95% | 1020.5 hPa | 0 mm | - | - | - |
| 1787706129 | 15.56° C | 95% | 1020.4 hPa | 0 mm | - | - | - |
* Rain since midnight (hover to see other rain measurements)
** Current wind speed in m/s (hover to see current wind gust speed)